• Join FlightAware (Why Join?)
  • Login
  • US Flag 
04:04PM EDT


 

Airport Tracker/Info


-or-


 

Live Flight TrackerFlight Track Log ✈ N50KC ✈ 07-Jun-2013 ✈ KTEB - KOXC

Flight Track Log - Related Links

Times and Time Zones

All times are in EDT time to prevent confusion due to time zone crossing. See the N50KC flight status page for this flight to view local times or setup timezone preferences in your user account.

Time Position Orientation Groundspeed Altitude Reporting Facility
EDT Latitude Longitude Course Direction KTS MPH feet Rate Location/Type
05:49PM 40.8833 -74.0333 348° North 194 223 1,900  Level New York TRACON
05:51PM 40.9167 -74.1000 304° West 242 278 2,000 1,140 Climbing New York TRACON
05:52PM 40.9167 -74.2000 270° West 275 316 4,300 1,980 Climbing New York TRACON
05:53PM 40.9833 -74.2167 349° North 280 322 6,000 840 Climbing New York TRACON
05:53PM 41.0500 -74.1833 21° North 269 310 6,000  Level New York TRACON
05:55PM 41.1292 -74.1276 348° North  Level FlightAware Approximate
05:55PM 41.1333 -74.1333 24° Northeast 273 314 6,000  Level New York TRACON
05:55PM 41.1667 -74.0833 48° Northeast 268 308 6,000 -180 Level New York TRACON
05:57PM 41.2000 -73.9667 69° East 263 303 5,700 -540 Descending New York TRACON
05:57PM 41.2167 -73.9000 72° East 260 299 5,000 -420 Descending New York TRACON
05:58PM 41.2333 -73.8000 77° East 261 300 5,000  Level New York TRACON
05:59PM 41.2500 -73.7167 75° East 259 298 5,000  Level New York TRACON
06:00PM 41.2667 -73.6167 77° East 255 293 5,000  Level New York TRACON
06:01PM 41.2667 -73.5333 90° East 256 295 5,000 -180 Level New York TRACON
06:02PM 41.2667 -73.4333 90° East 256 295 4,700 -660 Descending New York TRACON
06:03PM 41.2500 -73.3500 105° East 253 291 3,700 -900 Descending New York TRACON
06:05PM 41.2667 -73.2500 77° East 240 276 2,900 -480 Descending New York TRACON
06:05PM 41.2833 -73.1833 72° East 203 234 2,800 -300 Descending New York TRACON
06:06PM 41.3000 -73.1167 72° East 181 208 2,400 -240 Descending New York TRACON
06:07PM 41.3500 -73.1167 360° North 160 184 2,400 -120 Level New York TRACON
06:08PM 41.4000 -73.1167 360° North 165 190 2,200 -420 Descending New York TRACON
06:09PM 41.4333 -73.1167 360° North 125 144 1,600 -660 Descending New York TRACON
06:11PM 41.4667 -73.1333 339° North 119 137 900 -360 Descending New York TRACON
06:11PM 41.4833 -73.1333 360° North 119 137 900  Level New York TRACON